sensor_id;sensor_type;location;lat;lon;timestamp;P1;durP1;ratioP1;P2;durP2;ratioP2
14474;SDS011;7323;50.848;4.334;2022-08-19T06:28:01;20.73;;;12.87;;
14474;SDS011;7323;50.848;4.334;2022-08-19T06:30:51;17.73;;;11.90;;
14474;SDS011;7323;50.848;4.334;2022-08-19T08:11:19;11.93;;;7.83;;
14474;SDS011;7323;50.848;4.334;2022-08-19T08:28:11;10.90;;;7.60;;
14474;SDS011;7323;50.848;4.334;2022-08-19T08:55:53;11.43;;;6.50;;
14474;SDS011;7323;50.848;4.334;2022-08-19T09:01:25;9.50;;;6.73;;
14474;SDS011;7323;50.848;4.334;2022-08-19T09:17:39;9.23;;;6.47;;
14474;SDS011;7323;50.848;4.334;2022-08-19T09:50:33;7.67;;;6.10;;
14474;SDS011;7323;50.848;4.334;2022-08-19T10:00:53;8.20;;;5.67;;
14474;SDS011;7323;50.848;4.334;2022-08-19T10:20:30;8.40;;;6.30;;
14474;SDS011;7323;50.848;4.334;2022-08-19T11:15:26;9.83;;;6.20;;
14474;SDS011;7323;50.848;4.334;2022-08-19T12:09:44;7.67;;;6.90;;
14474;SDS011;7323;50.848;4.334;2022-08-19T12:53:31;7.57;;;4.40;;
14474;SDS011;7323;50.848;4.334;2022-08-19T12:56:23;7.43;;;6.60;;
14474;SDS011;7323;50.848;4.334;2022-08-19T12:59:22;10.00;;;8.57;;
14474;SDS011;7323;50.848;4.334;2022-08-19T13:09:14;4.37;;;3.20;;
14474;SDS011;7323;50.848;4.334;2022-08-19T13:15:50;5.73;;;3.10;;
14474;SDS011;7323;50.848;4.334;2022-08-19T13:18:19;4.23;;;3.30;;
14474;SDS011;7323;50.848;4.334;2022-08-19T13:20:52;4.17;;;3.20;;
14474;SDS011;7323;50.848;4.334;2022-08-19T13:27:01;5.67;;;3.30;;
14474;SDS011;7323;50.848;4.334;2022-08-19T13:36:22;5.97;;;3.20;;
14474;SDS011;7323;50.848;4.334;2022-08-19T13:39:03;6.83;;;2.53;;
14474;SDS011;7323;50.848;4.334;2022-08-19T13:41:43;4.03;;;3.30;;
14474;SDS011;7323;50.848;4.334;2022-08-19T13:57:38;3.83;;;3.20;;
14474;SDS011;7323;50.848;4.334;2022-08-19T14:00:39;6.00;;;2.80;;
14474;SDS011;7323;50.848;4.334;2022-08-19T14:16:41;4.00;;;3.00;;
14474;SDS011;7323;50.848;4.334;2022-08-19T14:43:11;4.60;;;2.87;;
14474;SDS011;7323;50.848;4.334;2022-08-19T15:29:40;2.57;;;1.80;;
14474;SDS011;7323;50.848;4.334;2022-08-19T16:18:26;3.60;;;2.83;;
14474;SDS011;7323;50.848;4.334;2022-08-19T16:31:11;4.97;;;3.33;;
14474;SDS011;7323;50.848;4.334;2022-08-19T16:40:27;4.23;;;3.43;;
14474;SDS011;7323;50.848;4.334;2022-08-19T16:43:33;4.50;;;3.27;;
14474;SDS011;7323;50.848;4.334;2022-08-19T16:58:45;4.00;;;2.40;;
14474;SDS011;7323;50.848;4.334;2022-08-19T17:14:59;4.80;;;2.70;;
14474;SDS011;7323;50.848;4.334;2022-08-19T17:21:11;4.73;;;3.13;;
14474;SDS011;7323;50.848;4.334;2022-08-19T17:23:43;6.57;;;2.90;;
14474;SDS011;7323;50.848;4.334;2022-08-19T17:30:00;3.83;;;2.40;;
14474;SDS011;7323;50.848;4.334;2022-08-19T17:36:07;5.43;;;3.00;;
14474;SDS011;7323;50.848;4.334;2022-08-19T17:38:39;4.70;;;3.43;;
14474;SDS011;7323;50.848;4.334;2022-08-19T17:41:13;4.93;;;3.10;;
14474;SDS011;7323;50.848;4.334;2022-08-19T17:47:19;6.60;;;4.20;;
14474;SDS011;7323;50.848;4.334;2022-08-19T17:49:48;9.27;;;5.40;;
14474;SDS011;7323;50.848;4.334;2022-08-19T17:52:24;6.67;;;4.43;;
14474;SDS011;7323;50.848;4.334;2022-08-19T17:55:11;7.30;;;4.60;;
14474;SDS011;7323;50.848;4.334;2022-08-19T18:01:22;4.73;;;3.60;;
14474;SDS011;7323;50.848;4.334;2022-08-19T18:04:14;5.97;;;3.87;;
14474;SDS011;7323;50.848;4.334;2022-08-19T18:10:20;4.63;;;3.53;;
14474;SDS011;7323;50.848;4.334;2022-08-19T18:12:54;7.50;;;3.33;;
14474;SDS011;7323;50.848;4.334;2022-08-19T18:15:24;5.13;;;3.70;;
14474;SDS011;7323;50.848;4.334;2022-08-19T18:18:04;6.63;;;3.33;;
14474;SDS011;7323;50.848;4.334;2022-08-19T18:20:31;6.07;;;3.00;;
14474;SDS011;7323;50.848;4.334;2022-08-19T18:22:57;5.87;;;3.20;;
14474;SDS011;7323;50.848;4.334;2022-08-19T18:25:25;5.50;;;3.60;;
14474;SDS011;7323;50.848;4.334;2022-08-19T18:27:58;6.27;;;3.07;;
14474;SDS011;7323;50.848;4.334;2022-08-19T18:30:26;4.30;;;3.20;;
14474;SDS011;7323;50.848;4.334;2022-08-19T18:32:57;6.27;;;3.33;;
14474;SDS011;7323;50.848;4.334;2022-08-19T18:35:37;6.87;;;3.30;;
14474;SDS011;7323;50.848;4.334;2022-08-19T18:38:16;5.47;;;3.50;;
14474;SDS011;7323;50.848;4.334;2022-08-19T18:41:02;4.43;;;2.97;;
14474;SDS011;7323;50.848;4.334;2022-08-19T18:43:47;5.23;;;3.00;;
14474;SDS011;7323;50.848;4.334;2022-08-19T18:46:38;4.63;;;3.57;;
14474;SDS011;7323;50.848;4.334;2022-08-19T18:49:25;5.93;;;3.97;;
14474;SDS011;7323;50.848;4.334;2022-08-19T18:51:53;6.40;;;4.23;;
14474;SDS011;7323;50.848;4.334;2022-08-19T18:54:20;6.77;;;4.30;;
14474;SDS011;7323;50.848;4.334;2022-08-19T18:56:46;8.07;;;4.87;;
14474;SDS011;7323;50.848;4.334;2022-08-19T18:59:13;5.00;;;4.20;;
14474;SDS011;7323;50.848;4.334;2022-08-19T19:01:41;7.20;;;5.50;;
14474;SDS011;7323;50.848;4.334;2022-08-19T19:04:18;7.67;;;5.23;;
14474;SDS011;7323;50.848;4.334;2022-08-19T19:06:46;4.83;;;4.23;;
14474;SDS011;7323;50.848;4.334;2022-08-19T19:09:15;6.07;;;4.63;;
14474;SDS011;7323;50.848;4.334;2022-08-19T19:14:44;6.30;;;4.90;;
14474;SDS011;7323;50.848;4.334;2022-08-19T19:17:13;7.57;;;5.07;;
14474;SDS011;7323;50.848;4.334;2022-08-19T19:19:40;5.50;;;4.00;;
14474;SDS011;7323;50.848;4.334;2022-08-19T19:22:12;5.23;;;4.20;;
14474;SDS011;7323;50.848;4.334;2022-08-19T19:24:42;3.63;;;3.20;;
14474;SDS011;7323;50.848;4.334;2022-08-19T19:27:12;6.43;;;4.10;;
14474;SDS011;7323;50.848;4.334;2022-08-19T19:29:42;6.60;;;4.03;;
14474;SDS011;7323;50.848;4.334;2022-08-19T19:32:13;5.93;;;4.23;;
14474;SDS011;7323;50.848;4.334;2022-08-19T19:34:46;4.63;;;3.53;;
14474;SDS011;7323;50.848;4.334;2022-08-19T19:37:12;4.73;;;3.03;;
14474;SDS011;7323;50.848;4.334;2022-08-19T19:39:41;6.57;;;3.80;;
14474;SDS011;7323;50.848;4.334;2022-08-19T19:42:10;3.53;;;2.80;;
14474;SDS011;7323;50.848;4.334;2022-08-19T19:44:39;6.87;;;3.23;;
14474;SDS011;7323;50.848;4.334;2022-08-19T19:47:09;4.53;;;2.80;;
14474;SDS011;7323;50.848;4.334;2022-08-19T19:49:38;3.83;;;2.60;;
14474;SDS011;7323;50.848;4.334;2022-08-19T19:52:07;4.77;;;2.60;;
14474;SDS011;7323;50.848;4.334;2022-08-19T19:57:03;3.87;;;2.03;;
14474;SDS011;7323;50.848;4.334;2022-08-19T20:02:04;4.00;;;2.13;;
14474;SDS011;7323;50.848;4.334;2022-08-19T20:07:02;4.67;;;2.23;;
14474;SDS011;7323;50.848;4.334;2022-08-19T20:09:38;5.93;;;2.27;;
14474;SDS011;7323;50.848;4.334;2022-08-19T20:12:17;3.17;;;1.67;;
14474;SDS011;7323;50.848;4.334;2022-08-19T20:14:47;4.17;;;2.20;;
14474;SDS011;7323;50.848;4.334;2022-08-19T20:19:41;3.77;;;2.57;;
14474;SDS011;7323;50.848;4.334;2022-08-19T20:22:08;5.40;;;2.60;;
14474;SDS011;7323;50.848;4.334;2022-08-19T20:24:41;4.80;;;3.07;;
14474;SDS011;7323;50.848;4.334;2022-08-19T20:29:35;5.97;;;2.63;;
14474;SDS011;7323;50.848;4.334;2022-08-19T20:32:03;3.60;;;2.67;;
14474;SDS011;7323;50.848;4.334;2022-08-19T20:34:29;4.13;;;2.50;;
14474;SDS011;7323;50.848;4.334;2022-08-19T20:36:56;5.47;;;2.80;;
14474;SDS011;7323;50.848;4.334;2022-08-19T20:41:52;3.93;;;2.13;;
14474;SDS011;7323;50.848;4.334;2022-08-19T20:44:20;4.73;;;2.33;;
14474;SDS011;7323;50.848;4.334;2022-08-19T20:46:46;6.40;;;2.57;;
14474;SDS011;7323;50.848;4.334;2022-08-19T20:49:12;3.80;;;2.30;;
14474;SDS011;7323;50.848;4.334;2022-08-19T20:51:39;4.60;;;2.70;;
14474;SDS011;7323;50.848;4.334;2022-08-19T20:54:05;4.03;;;2.40;;
14474;SDS011;7323;50.848;4.334;2022-08-19T20:56:31;4.40;;;2.50;;
14474;SDS011;7323;50.848;4.334;2022-08-19T20:58:57;3.63;;;2.57;;
14474;SDS011;7323;50.848;4.334;2022-08-19T21:01:24;3.70;;;2.63;;
14474;SDS011;7323;50.848;4.334;2022-08-19T21:06:23;5.63;;;2.83;;
14474;SDS011;7323;50.848;4.334;2022-08-19T21:08:53;5.93;;;3.00;;
14474;SDS011;7323;50.848;4.334;2022-08-19T21:11:21;6.53;;;2.90;;
14474;SDS011;7323;50.848;4.334;2022-08-19T21:13:46;6.83;;;4.70;;
14474;SDS011;7323;50.848;4.334;2022-08-19T21:16:15;4.77;;;3.00;;
14474;SDS011;7323;50.848;4.334;2022-08-19T21:21:11;5.57;;;3.23;;
14474;SDS011;7323;50.848;4.334;2022-08-19T21:23:36;5.87;;;3.43;;
14474;SDS011;7323;50.848;4.334;2022-08-19T21:26:02;5.33;;;3.30;;
14474;SDS011;7323;50.848;4.334;2022-08-19T21:28:28;5.90;;;3.77;;
14474;SDS011;7323;50.848;4.334;2022-08-19T21:30:54;12.87;;;3.93;;
14474;SDS011;7323;50.848;4.334;2022-08-19T21:33:21;4.83;;;3.30;;
14474;SDS011;7323;50.848;4.334;2022-08-19T21:35:47;5.83;;;3.40;;
14474;SDS011;7323;50.848;4.334;2022-08-19T21:38:19;6.87;;;3.40;;
14474;SDS011;7323;50.848;4.334;2022-08-19T21:40:48;5.17;;;3.67;;
14474;SDS011;7323;50.848;4.334;2022-08-19T21:43:16;5.87;;;3.20;;
14474;SDS011;7323;50.848;4.334;2022-08-19T21:45:42;6.23;;;3.60;;
14474;SDS011;7323;50.848;4.334;2022-08-19T21:48:11;5.90;;;3.70;;
14474;SDS011;7323;50.848;4.334;2022-08-19T21:50:40;6.83;;;3.77;;
14474;SDS011;7323;50.848;4.334;2022-08-19T21:53:07;6.53;;;3.60;;
14474;SDS011;7323;50.848;4.334;2022-08-19T21:55:37;5.97;;;3.50;;
14474;SDS011;7323;50.848;4.334;2022-08-19T21:58:04;4.80;;;3.70;;
14474;SDS011;7323;50.848;4.334;2022-08-19T22:00:30;4.33;;;3.60;;
14474;SDS011;7323;50.848;4.334;2022-08-19T22:02:59;5.37;;;3.87;;
14474;SDS011;7323;50.848;4.334;2022-08-19T22:05:25;6.37;;;3.70;;
14474;SDS011;7323;50.848;4.334;2022-08-19T22:07:53;5.03;;;3.93;;
14474;SDS011;7323;50.848;4.334;2022-08-19T22:10:25;6.10;;;4.23;;
14474;SDS011;7323;50.848;4.334;2022-08-19T22:13:03;7.20;;;4.30;;
14474;SDS011;7323;50.848;4.334;2022-08-19T22:15:32;4.87;;;4.07;;
14474;SDS011;7323;50.848;4.334;2022-08-19T22:17:58;6.90;;;4.20;;
14474;SDS011;7323;50.848;4.334;2022-08-19T22:20:26;6.60;;;3.97;;
14474;SDS011;7323;50.848;4.334;2022-08-19T22:22:57;7.87;;;4.57;;
14474;SDS011;7323;50.848;4.334;2022-08-19T22:28:53;7.67;;;4.57;;
14474;SDS011;7323;50.848;4.334;2022-08-19T22:31:19;8.77;;;5.20;;
14474;SDS011;7323;50.848;4.334;2022-08-19T22:33:45;6.93;;;5.23;;
14474;SDS011;7323;50.848;4.334;2022-08-19T22:36:11;7.73;;;5.10;;
14474;SDS011;7323;50.848;4.334;2022-08-19T22:38:38;7.83;;;5.20;;
14474;SDS011;7323;50.848;4.334;2022-08-19T22:41:04;7.23;;;5.70;;
14474;SDS011;7323;50.848;4.334;2022-08-19T22:46:04;8.53;;;5.33;;
14474;SDS011;7323;50.848;4.334;2022-08-19T22:48:30;8.47;;;5.60;;
14474;SDS011;7323;50.848;4.334;2022-08-19T22:50:57;6.80;;;5.50;;
14474;SDS011;7323;50.848;4.334;2022-08-19T22:53:42;7.47;;;5.70;;
14474;SDS011;7323;50.848;4.334;2022-08-19T22:56:09;6.93;;;5.83;;
14474;SDS011;7323;50.848;4.334;2022-08-19T22:58:38;8.00;;;5.50;;
14474;SDS011;7323;50.848;4.334;2022-08-19T23:01:05;7.77;;;6.03;;
14474;SDS011;7323;50.848;4.334;2022-08-19T23:03:34;6.73;;;5.50;;
14474;SDS011;7323;50.848;4.334;2022-08-19T23:05:59;12.17;;;6.07;;
14474;SDS011;7323;50.848;4.334;2022-08-19T23:08:25;7.53;;;5.40;;
14474;SDS011;7323;50.848;4.334;2022-08-19T23:10:51;7.97;;;5.53;;
14474;SDS011;7323;50.848;4.334;2022-08-19T23:13:16;7.67;;;5.83;;
14474;SDS011;7323;50.848;4.334;2022-08-19T23:15:44;8.00;;;5.17;;
14474;SDS011;7323;50.848;4.334;2022-08-19T23:18:10;6.70;;;5.63;;
14474;SDS011;7323;50.848;4.334;2022-08-19T23:20:37;8.43;;;5.93;;
14474;SDS011;7323;50.848;4.334;2022-08-19T23:23:06;9.70;;;6.40;;
14474;SDS011;7323;50.848;4.334;2022-08-19T23:25:35;8.43;;;5.80;;
14474;SDS011;7323;50.848;4.334;2022-08-19T23:28:02;7.70;;;5.50;;
14474;SDS011;7323;50.848;4.334;2022-08-19T23:30:48;7.73;;;5.97;;
14474;SDS011;7323;50.848;4.334;2022-08-19T23:33:19;7.63;;;5.90;;
14474;SDS011;7323;50.848;4.334;2022-08-19T23:35:48;9.10;;;5.63;;
14474;SDS011;7323;50.848;4.334;2022-08-19T23:38:15;6.63;;;5.57;;
14474;SDS011;7323;50.848;4.334;2022-08-19T23:40:43;8.50;;;5.97;;
14474;SDS011;7323;50.848;4.334;2022-08-19T23:43:09;9.40;;;5.43;;
14474;SDS011;7323;50.848;4.334;2022-08-19T23:45:36;8.37;;;5.43;;
14474;SDS011;7323;50.848;4.334;2022-08-19T23:48:03;8.10;;;5.40;;
14474;SDS011;7323;50.848;4.334;2022-08-19T23:50:29;7.13;;;5.30;;
14474;SDS011;7323;50.848;4.334;2022-08-19T23:52:58;6.23;;;5.07;;
14474;SDS011;7323;50.848;4.334;2022-08-19T23:55:26;7.63;;;4.73;;
14474;SDS011;7323;50.848;4.334;2022-08-19T23:57:54;8.10;;;5.40;;
